sensor_id;sensor_type;location;lat;lon;timestamp;P1;durP1;ratioP1;P2;durP2;ratioP2
37955;SDS011;23776;51.592;7.180;2023-07-31T00:00:13;5.13;;;1.58;;
37955;SDS011;23776;51.592;7.180;2023-07-31T00:02:39;4.63;;;2.55;;
37955;SDS011;23776;51.592;7.180;2023-07-31T00:05:07;3.95;;;2.05;;
37955;SDS011;23776;51.592;7.180;2023-07-31T00:07:33;3.08;;;1.60;;
37955;SDS011;23776;51.592;7.180;2023-07-31T00:09:59;3.08;;;1.95;;
37955;SDS011;23776;51.592;7.180;2023-07-31T00:12:25;5.13;;;2.25;;
37955;SDS011;23776;51.592;7.180;2023-07-31T00:14:50;4.03;;;1.60;;
37955;SDS011;23776;51.592;7.180;2023-07-31T00:17:16;2.53;;;1.77;;
37955;SDS011;23776;51.592;7.180;2023-07-31T00:19:42;3.13;;;1.90;;
37955;SDS011;23776;51.592;7.180;2023-07-31T00:22:08;3.60;;;1.65;;
37955;SDS011;23776;51.592;7.180;2023-07-31T00:24:33;3.92;;;2.13;;
37955;SDS011;23776;51.592;7.180;2023-07-31T00:26:59;4.00;;;2.40;;
37955;SDS011;23776;51.592;7.180;2023-07-31T00:29:24;4.45;;;2.70;;
37955;SDS011;23776;51.592;7.180;2023-07-31T00:31:50;7.85;;;3.47;;
37955;SDS011;23776;51.592;7.180;2023-07-31T00:34:15;8.55;;;4.00;;
37955;SDS011;23776;51.592;7.180;2023-07-31T00:36:41;8.00;;;3.90;;
37955;SDS011;23776;51.592;7.180;2023-07-31T00:39:06;10.50;;;4.72;;
37955;SDS011;23776;51.592;7.180;2023-07-31T00:41:32;10.25;;;4.78;;
37955;SDS011;23776;51.592;7.180;2023-07-31T00:43:57;9.63;;;5.50;;
37955;SDS011;23776;51.592;7.180;2023-07-31T00:46:23;17.75;;;6.50;;
37955;SDS011;23776;51.592;7.180;2023-07-31T00:48:48;18.45;;;6.95;;
37955;SDS011;23776;51.592;7.180;2023-07-31T00:51:14;21.23;;;6.80;;
37955;SDS011;23776;51.592;7.180;2023-07-31T00:53:40;19.70;;;6.60;;
37955;SDS011;23776;51.592;7.180;2023-07-31T00:56:07;21.33;;;7.30;;
37955;SDS011;23776;51.592;7.180;2023-07-31T00:58:33;20.50;;;7.65;;
37955;SDS011;23776;51.592;7.180;2023-07-31T01:00:59;27.08;;;8.27;;
37955;SDS011;23776;51.592;7.180;2023-07-31T01:03:25;28.98;;;9.07;;
37955;SDS011;23776;51.592;7.180;2023-07-31T01:06:07;29.67;;;8.20;;
37955;SDS011;23776;51.592;7.180;2023-07-31T01:11:26;33.97;;;8.50;;
37955;SDS011;23776;51.592;7.180;2023-07-31T01:13:54;24.55;;;8.73;;
37955;SDS011;23776;51.592;7.180;2023-07-31T01:16:20;26.58;;;9.10;;
37955;SDS011;23776;51.592;7.180;2023-07-31T01:18:46;31.77;;;8.65;;
37955;SDS011;23776;51.592;7.180;2023-07-31T01:26:37;29.38;;;8.02;;
37955;SDS011;23776;51.592;7.180;2023-07-31T01:29:13;34.33;;;8.23;;
37955;SDS011;23776;51.592;7.180;2023-07-31T01:31:48;28.15;;;8.07;;
37955;SDS011;23776;51.592;7.180;2023-07-31T01:34:17;24.80;;;7.32;;
37955;SDS011;23776;51.592;7.180;2023-07-31T01:36:43;34.63;;;8.43;;
37955;SDS011;23776;51.592;7.180;2023-07-31T01:39:09;25.73;;;8.68;;
37955;SDS011;23776;51.592;7.180;2023-07-31T01:41:34;23.65;;;8.05;;
37955;SDS011;23776;51.592;7.180;2023-07-31T01:44:00;30.67;;;8.05;;
37955;SDS011;23776;51.592;7.180;2023-07-31T01:46:25;29.38;;;7.40;;
37955;SDS011;23776;51.592;7.180;2023-07-31T01:48:51;23.77;;;7.28;;
37955;SDS011;23776;51.592;7.180;2023-07-31T01:51:16;26.25;;;7.15;;
37955;SDS011;23776;51.592;7.180;2023-07-31T01:53:42;23.60;;;6.90;;
37955;SDS011;23776;51.592;7.180;2023-07-31T01:56:08;25.85;;;7.90;;
37955;SDS011;23776;51.592;7.180;2023-07-31T01:58:33;22.13;;;6.97;;
37955;SDS011;23776;51.592;7.180;2023-07-31T02:00:59;18.80;;;6.80;;
37955;SDS011;23776;51.592;7.180;2023-07-31T02:03:25;19.70;;;7.43;;
37955;SDS011;23776;51.592;7.180;2023-07-31T02:05:50;21.27;;;7.35;;
37955;SDS011;23776;51.592;7.180;2023-07-31T02:08:16;24.25;;;6.85;;
37955;SDS011;23776;51.592;7.180;2023-07-31T02:10:41;24.80;;;7.70;;
37955;SDS011;23776;51.592;7.180;2023-07-31T02:13:07;30.08;;;7.18;;
37955;SDS011;23776;51.592;7.180;2023-07-31T02:15:33;18.63;;;6.40;;
37955;SDS011;23776;51.592;7.180;2023-07-31T02:17:59;27.25;;;7.00;;
37955;SDS011;23776;51.592;7.180;2023-07-31T02:20:24;20.70;;;6.85;;
37955;SDS011;23776;51.592;7.180;2023-07-31T02:22:50;18.52;;;6.13;;
37955;SDS011;23776;51.592;7.180;2023-07-31T02:25:16;26.50;;;7.93;;
37955;SDS011;23776;51.592;7.180;2023-07-31T02:27:41;20.45;;;6.80;;
37955;SDS011;23776;51.592;7.180;2023-07-31T02:30:07;24.23;;;7.15;;
37955;SDS011;23776;51.592;7.180;2023-07-31T02:32:34;27.08;;;6.95;;
37955;SDS011;23776;51.592;7.180;2023-07-31T02:34:59;29.55;;;6.90;;
37955;SDS011;23776;51.592;7.180;2023-07-31T02:37:25;19.15;;;5.82;;
37955;SDS011;23776;51.592;7.180;2023-07-31T02:39:51;24.15;;;6.55;;
37955;SDS011;23776;51.592;7.180;2023-07-31T02:42:16;25.13;;;7.28;;
37955;SDS011;23776;51.592;7.180;2023-07-31T02:44:42;26.58;;;6.45;;
37955;SDS011;23776;51.592;7.180;2023-07-31T02:47:08;27.70;;;6.57;;
37955;SDS011;23776;51.592;7.180;2023-07-31T02:49:33;23.15;;;6.10;;
37955;SDS011;23776;51.592;7.180;2023-07-31T02:51:59;24.75;;;6.93;;
37955;SDS011;23776;51.592;7.180;2023-07-31T02:54:25;20.02;;;6.32;;
37955;SDS011;23776;51.592;7.180;2023-07-31T02:56:50;24.77;;;6.78;;
37955;SDS011;23776;51.592;7.180;2023-07-31T02:59:16;17.98;;;5.93;;
37955;SDS011;23776;51.592;7.180;2023-07-31T03:01:43;23.00;;;6.88;;
37955;SDS011;23776;51.592;7.180;2023-07-31T03:04:08;30.60;;;6.30;;
37955;SDS011;23776;51.592;7.180;2023-07-31T03:06:34;23.27;;;6.50;;
37955;SDS011;23776;51.592;7.180;2023-07-31T03:08:59;18.02;;;6.03;;
37955;SDS011;23776;51.592;7.180;2023-07-31T03:11:25;20.88;;;5.88;;
37955;SDS011;23776;51.592;7.180;2023-07-31T03:13:50;21.25;;;6.07;;
37955;SDS011;23776;51.592;7.180;2023-07-31T03:16:16;26.25;;;6.50;;
37955;SDS011;23776;51.592;7.180;2023-07-31T03:18:41;25.05;;;6.68;;
37955;SDS011;23776;51.592;7.180;2023-07-31T03:21:07;25.42;;;6.28;;
37955;SDS011;23776;51.592;7.180;2023-07-31T03:23:33;25.08;;;6.50;;
37955;SDS011;23776;51.592;7.180;2023-07-31T03:26:02;22.05;;;5.50;;
37955;SDS011;23776;51.592;7.180;2023-07-31T03:28:33;19.00;;;5.35;;
37955;SDS011;23776;51.592;7.180;2023-07-31T03:30:58;23.45;;;6.85;;
37955;SDS011;23776;51.592;7.180;2023-07-31T03:33:25;24.25;;;6.90;;
37955;SDS011;23776;51.592;7.180;2023-07-31T03:35:51;20.20;;;6.55;;
37955;SDS011;23776;51.592;7.180;2023-07-31T03:38:16;19.60;;;5.90;;
37955;SDS011;23776;51.592;7.180;2023-07-31T03:40:42;18.20;;;6.50;;
37955;SDS011;23776;51.592;7.180;2023-07-31T03:43:07;17.77;;;6.32;;
37955;SDS011;23776;51.592;7.180;2023-07-31T03:45:33;20.85;;;6.18;;
37955;SDS011;23776;51.592;7.180;2023-07-31T03:47:59;28.42;;;6.70;;
37955;SDS011;23776;51.592;7.180;2023-07-31T03:50:24;22.05;;;6.05;;
37955;SDS011;23776;51.592;7.180;2023-07-31T03:52:50;25.75;;;5.93;;
37955;SDS011;23776;51.592;7.180;2023-07-31T03:55:16;23.13;;;6.35;;
37955;SDS011;23776;51.592;7.180;2023-07-31T03:57:41;21.90;;;6.22;;
37955;SDS011;23776;51.592;7.180;2023-07-31T04:00:07;20.45;;;5.35;;
37955;SDS011;23776;51.592;7.180;2023-07-31T04:02:33;22.25;;;6.50;;
37955;SDS011;23776;51.592;7.180;2023-07-31T04:04:58;18.77;;;5.45;;
37955;SDS011;23776;51.592;7.180;2023-07-31T04:07:24;21.15;;;6.07;;
37955;SDS011;23776;51.592;7.180;2023-07-31T04:09:49;24.33;;;6.13;;
37955;SDS011;23776;51.592;7.180;2023-07-31T04:12:15;19.98;;;6.05;;
37955;SDS011;23776;51.592;7.180;2023-07-31T04:14:40;31.23;;;7.22;;
37955;SDS011;23776;51.592;7.180;2023-07-31T04:17:06;21.15;;;6.65;;
37955;SDS011;23776;51.592;7.180;2023-07-31T04:19:31;21.48;;;5.57;;
37955;SDS011;23776;51.592;7.180;2023-07-31T04:21:57;20.02;;;5.90;;
37955;SDS011;23776;51.592;7.180;2023-07-31T04:24:23;20.63;;;6.32;;
37955;SDS011;23776;51.592;7.180;2023-07-31T04:26:51;24.98;;;6.50;;
37955;SDS011;23776;51.592;7.180;2023-07-31T04:29:17;26.85;;;6.25;;
37955;SDS011;23776;51.592;7.180;2023-07-31T04:31:43;20.40;;;6.47;;
37955;SDS011;23776;51.592;7.180;2023-07-31T04:34:09;19.77;;;6.00;;
37955;SDS011;23776;51.592;7.180;2023-07-31T04:36:34;11.93;;;5.00;;
37955;SDS011;23776;51.592;7.180;2023-07-31T04:39:00;20.52;;;6.05;;
37955;SDS011;23776;51.592;7.180;2023-07-31T04:41:26;17.77;;;6.03;;
37955;SDS011;23776;51.592;7.180;2023-07-31T04:43:52;21.73;;;6.55;;
37955;SDS011;23776;51.592;7.180;2023-07-31T04:46:17;16.40;;;5.00;;
37955;SDS011;23776;51.592;7.180;2023-07-31T04:48:43;18.92;;;6.18;;
37955;SDS011;23776;51.592;7.180;2023-07-31T04:51:08;16.23;;;5.70;;
37955;SDS011;23776;51.592;7.180;2023-07-31T04:53:34;18.10;;;5.13;;
37955;SDS011;23776;51.592;7.180;2023-07-31T04:56:00;15.40;;;5.20;;
37955;SDS011;23776;51.592;7.180;2023-07-31T04:58:26;16.05;;;5.90;;
37955;SDS011;23776;51.592;7.180;2023-07-31T05:00:52;17.67;;;6.47;;
37955;SDS011;23776;51.592;7.180;2023-07-31T05:03:17;22.88;;;6.22;;
37955;SDS011;23776;51.592;7.180;2023-07-31T05:05:43;20.25;;;6.85;;
37955;SDS011;23776;51.592;7.180;2023-07-31T05:08:09;18.02;;;6.50;;
37955;SDS011;23776;51.592;7.180;2023-07-31T05:10:34;23.00;;;6.70;;
37955;SDS011;23776;51.592;7.180;2023-07-31T05:13:00;21.20;;;6.30;;
37955;SDS011;23776;51.592;7.180;2023-07-31T05:15:26;16.73;;;6.78;;
37955;SDS011;23776;51.592;7.180;2023-07-31T05:17:51;19.02;;;6.45;;
37955;SDS011;23776;51.592;7.180;2023-07-31T05:20:17;21.63;;;6.28;;
37955;SDS011;23776;51.592;7.180;2023-07-31T05:22:42;24.67;;;6.38;;
37955;SDS011;23776;51.592;7.180;2023-07-31T05:25:08;19.85;;;6.53;;
37955;SDS011;23776;51.592;7.180;2023-07-31T05:27:34;13.90;;;6.05;;
37955;SDS011;23776;51.592;7.180;2023-07-31T05:29:59;19.73;;;7.00;;
37955;SDS011;23776;51.592;7.180;2023-07-31T05:32:25;17.15;;;5.97;;
37955;SDS011;23776;51.592;7.180;2023-07-31T05:34:51;16.73;;;5.97;;
37955;SDS011;23776;51.592;7.180;2023-07-31T05:37:18;21.20;;;6.22;;
37955;SDS011;23776;51.592;7.180;2023-07-31T05:39:44;16.85;;;5.93;;
37955;SDS011;23776;51.592;7.180;2023-07-31T05:42:09;18.75;;;5.65;;
37955;SDS011;23776;51.592;7.180;2023-07-31T05:44:35;26.70;;;6.07;;
37955;SDS011;23776;51.592;7.180;2023-07-31T05:47:00;14.23;;;5.38;;
37955;SDS011;23776;51.592;7.180;2023-07-31T05:49:26;20.63;;;6.10;;
37955;SDS011;23776;51.592;7.180;2023-07-31T05:51:51;18.17;;;7.53;;
37955;SDS011;23776;51.592;7.180;2023-07-31T05:54:17;16.02;;;6.75;;
37955;SDS011;23776;51.592;7.180;2023-07-31T05:56:43;18.88;;;7.32;;
37955;SDS011;23776;51.592;7.180;2023-07-31T05:59:09;21.08;;;7.72;;
37955;SDS011;23776;51.592;7.180;2023-07-31T06:01:37;16.48;;;6.63;;
37955;SDS011;23776;51.592;7.180;2023-07-31T06:04:02;22.58;;;7.35;;
37955;SDS011;23776;51.592;7.180;2023-07-31T06:06:28;21.60;;;7.65;;
37955;SDS011;23776;51.592;7.180;2023-07-31T06:08:54;21.63;;;7.55;;
37955;SDS011;23776;51.592;7.180;2023-07-31T06:11:20;17.83;;;6.80;;
37955;SDS011;23776;51.592;7.180;2023-07-31T06:13:46;20.67;;;9.18;;
37955;SDS011;23776;51.592;7.180;2023-07-31T06:16:13;27.08;;;7.65;;
37955;SDS011;23776;51.592;7.180;2023-07-31T06:18:39;20.67;;;8.50;;
37955;SDS011;23776;51.592;7.180;2023-07-31T06:21:04;17.52;;;7.55;;
37955;SDS011;23776;51.592;7.180;2023-07-31T06:23:30;28.65;;;8.93;;
37955;SDS011;23776;51.592;7.180;2023-07-31T06:25:56;18.48;;;8.10;;
37955;SDS011;23776;51.592;7.180;2023-07-31T06:28:23;22.95;;;8.30;;
37955;SDS011;23776;51.592;7.180;2023-07-31T06:30:54;20.85;;;7.75;;
37955;SDS011;23776;51.592;7.180;2023-07-31T06:33:19;19.15;;;7.32;;
37955;SDS011;23776;51.592;7.180;2023-07-31T06:35:45;20.23;;;9.35;;
37955;SDS011;23776;51.592;7.180;2023-07-31T06:38:10;34.90;;;9.32;;
37955;SDS011;23776;51.592;7.180;2023-07-31T06:40:36;22.50;;;8.55;;
37955;SDS011;23776;51.592;7.180;2023-07-31T06:43:02;21.10;;;8.80;;
37955;SDS011;23776;51.592;7.180;2023-07-31T06:45:33;22.13;;;7.97;;
37955;SDS011;23776;51.592;7.180;2023-07-31T06:47:59;19.98;;;7.70;;
37955;SDS011;23776;51.592;7.180;2023-07-31T06:50:26;21.20;;;7.78;;
37955;SDS011;23776;51.592;7.180;2023-07-31T06:52:53;23.80;;;8.65;;
37955;SDS011;23776;51.592;7.180;2023-07-31T06:55:20;19.55;;;7.95;;
37955;SDS011;23776;51.592;7.180;2023-07-31T06:57:47;18.80;;;8.18;;
37955;SDS011;23776;51.592;7.180;2023-07-31T07:00:13;20.70;;;8.43;;
37955;SDS011;23776;51.592;7.180;2023-07-31T07:02:39;24.08;;;7.90;;
37955;SDS011;23776;51.592;7.180;2023-07-31T07:05:06;18.98;;;8.38;;
37955;SDS011;23776;51.592;7.180;2023-07-31T07:07:32;21.00;;;8.43;;
37955;SDS011;23776;51.592;7.180;2023-07-31T07:09:57;20.05;;;8.93;;
37955;SDS011;23776;51.592;7.180;2023-07-31T07:12:27;25.27;;;8.05;;
37955;SDS011;23776;51.592;7.180;2023-07-31T07:14:54;20.17;;;7.72;;
37955;SDS011;23776;51.592;7.180;2023-07-31T07:17:20;19.88;;;7.57;;
37955;SDS011;23776;51.592;7.180;2023-07-31T07:19:47;18.23;;;7.43;;
37955;SDS011;23776;51.592;7.180;2023-07-31T07:22:13;18.02;;;7.22;;
37955;SDS011;23776;51.592;7.180;2023-07-31T07:24:39;19.88;;;7.72;;
37955;SDS011;23776;51.592;7.180;2023-07-31T07:27:04;23.95;;;9.23;;
37955;SDS011;23776;51.592;7.180;2023-07-31T07:29:30;16.48;;;8.48;;
37955;SDS011;23776;51.592;7.180;2023-07-31T07:31:56;15.43;;;6.97;;
37955;SDS011;23776;51.592;7.180;2023-07-31T07:34:22;21.50;;;6.85;;
37955;SDS011;23776;51.592;7.180;2023-07-31T07:36:50;12.18;;;6.15;;
37955;SDS011;23776;51.592;7.180;2023-07-31T07:39:15;20.40;;;7.25;;
37955;SDS011;23776;51.592;7.180;2023-07-31T07:41:41;13.88;;;6.47;;
37955;SDS011;23776;51.592;7.180;2023-07-31T07:44:07;18.48;;;6.88;;
37955;SDS011;23776;51.592;7.180;2023-07-31T07:46:33;14.63;;;6.70;;
37955;SDS011;23776;51.592;7.180;2023-07-31T07:48:59;19.55;;;7.82;;
37955;SDS011;23776;51.592;7.180;2023-07-31T07:51:24;17.33;;;7.25;;
37955;SDS011;23776;51.592;7.180;2023-07-31T07:53:50;12.27;;;6.30;;
37955;SDS011;23776;51.592;7.180;2023-07-31T07:56:16;16.20;;;7.78;;
37955;SDS011;23776;51.592;7.180;2023-07-31T07:58:41;13.70;;;5.90;;
37955;SDS011;23776;51.592;7.180;2023-07-31T08:01:07;19.75;;;6.18;;
37955;SDS011;23776;51.592;7.180;2023-07-31T08:03:32;13.57;;;6.28;;
37955;SDS011;23776;51.592;7.180;2023-07-31T08:06:01;18.33;;;6.93;;
37955;SDS011;23776;51.592;7.180;2023-07-31T08:08:27;14.55;;;6.28;;
37955;SDS011;23776;51.592;7.180;2023-07-31T08:10:53;19.67;;;6.45;;
37955;SDS011;23776;51.592;7.180;2023-07-31T08:13:19;12.88;;;6.38;;
37955;SDS011;23776;51.592;7.180;2023-07-31T08:15:44;16.30;;;6.60;;
37955;SDS011;23776;51.592;7.180;2023-07-31T08:18:10;12.15;;;5.68;;
37955;SDS011;23776;51.592;7.180;2023-07-31T08:20:36;13.88;;;5.63;;
37955;SDS011;23776;51.592;7.180;2023-07-31T08:23:02;13.88;;;5.75;;
37955;SDS011;23776;51.592;7.180;2023-07-31T08:25:28;14.27;;;5.13;;
37955;SDS011;23776;51.592;7.180;2023-07-31T08:27:54;14.30;;;5.45;;
37955;SDS011;23776;51.592;7.180;2023-07-31T08:30:20;13.85;;;5.45;;
37955;SDS011;23776;51.592;7.180;2023-07-31T08:32:46;12.48;;;4.60;;
37955;SDS011;23776;51.592;7.180;2023-07-31T08:35:11;9.95;;;5.00;;
37955;SDS011;23776;51.592;7.180;2023-07-31T08:37:37;12.65;;;4.45;;
37955;SDS011;23776;51.592;7.180;2023-07-31T08:40:04;12.20;;;4.00;;
37955;SDS011;23776;51.592;7.180;2023-07-31T08:42:30;17.40;;;4.47;;
37955;SDS011;23776;51.592;7.180;2023-07-31T08:44:57;10.05;;;3.63;;
37955;SDS011;23776;51.592;7.180;2023-07-31T08:47:25;7.32;;;3.33;;
37955;SDS011;23776;51.592;7.180;2023-07-31T08:49:51;4.63;;;3.22;;
37955;SDS011;23776;51.592;7.180;2023-07-31T08:52:19;9.32;;;4.18;;
37955;SDS011;23776;51.592;7.180;2023-07-31T08:54:44;10.27;;;4.22;;
37955;SDS011;23776;51.592;7.180;2023-07-31T08:57:10;10.68;;;3.90;;
37955;SDS011;23776;51.592;7.180;2023-07-31T08:59:36;9.80;;;4.57;;
37955;SDS011;23776;51.592;7.180;2023-07-31T09:02:07;10.20;;;4.10;;
37955;SDS011;23776;51.592;7.180;2023-07-31T09:04:34;10.63;;;4.57;;
37955;SDS011;23776;51.592;7.180;2023-07-31T09:07:00;9.00;;;4.10;;
37955;SDS011;23776;51.592;7.180;2023-07-31T09:09:29;9.10;;;4.00;;
37955;SDS011;23776;51.592;7.180;2023-07-31T09:11:55;13.30;;;4.80;;
37955;SDS011;23776;51.592;7.180;2023-07-31T09:14:22;10.02;;;4.05;;
37955;SDS011;23776;51.592;7.180;2023-07-31T09:16:57;11.90;;;4.70;;
37955;SDS011;23776;51.592;7.180;2023-07-31T09:19:34;10.90;;;4.55;;
37955;SDS011;23776;51.592;7.180;2023-07-31T09:22:04;11.35;;;4.18;;
37955;SDS011;23776;51.592;7.180;2023-07-31T09:24:31;13.10;;;4.22;;
37955;SDS011;23776;51.592;7.180;2023-07-31T09:26:58;9.15;;;3.95;;
37955;SDS011;23776;51.592;7.180;2023-07-31T09:29:25;9.07;;;3.65;;
37955;SDS011;23776;51.592;7.180;2023-07-31T09:31:52;7.88;;;4.30;;
37955;SDS011;23776;51.592;7.180;2023-07-31T09:34:18;6.50;;;3.72;;
37955;SDS011;23776;51.592;7.180;2023-07-31T09:36:45;8.80;;;4.25;;
37955;SDS011;23776;51.592;7.180;2023-07-31T09:39:15;8.77;;;3.55;;
37955;SDS011;23776;51.592;7.180;2023-07-31T09:41:43;7.55;;;3.45;;
37955;SDS011;23776;51.592;7.180;2023-07-31T09:44:12;8.82;;;4.28;;
37955;SDS011;23776;51.592;7.180;2023-07-31T09:46:38;8.93;;;3.78;;
37955;SDS011;23776;51.592;7.180;2023-07-31T09:49:04;8.85;;;3.92;;
37955;SDS011;23776;51.592;7.180;2023-07-31T09:51:37;7.97;;;3.50;;
37955;SDS011;23776;51.592;7.180;2023-07-31T09:56:48;8.52;;;3.47;;
37955;SDS011;23776;51.592;7.180;2023-07-31T09:59:15;8.07;;;3.75;;
37955;SDS011;23776;51.592;7.180;2023-07-31T10:01:42;7.50;;;3.33;;
37955;SDS011;23776;51.592;7.180;2023-07-31T10:04:10;9.40;;;3.35;;
37955;SDS011;23776;51.592;7.180;2023-07-31T10:06:37;5.80;;;3.30;;
37955;SDS011;23776;51.592;7.180;2023-07-31T10:09:07;6.45;;;3.25;;
37955;SDS011;23776;51.592;7.180;2023-07-31T10:11:41;7.20;;;3.28;;
37955;SDS011;23776;51.592;7.180;2023-07-31T10:14:15;7.85;;;3.50;;
37955;SDS011;23776;51.592;7.180;2023-07-31T10:16:51;6.00;;;3.25;;
37955;SDS011;23776;51.592;7.180;2023-07-31T10:19:18;7.90;;;3.20;;
37955;SDS011;23776;51.592;7.180;2023-07-31T10:21:43;4.13;;;2.58;;
37955;SDS011;23776;51.592;7.180;2023-07-31T10:24:10;6.20;;;3.15;;
37955;SDS011;23776;51.592;7.180;2023-07-31T10:26:37;5.80;;;3.17;;
37955;SDS011;23776;51.592;7.180;2023-07-31T10:29:04;7.20;;;3.03;;
37955;SDS011;23776;51.592;7.180;2023-07-31T10:31:31;6.78;;;3.25;;
37955;SDS011;23776;51.592;7.180;2023-07-31T10:33:58;5.57;;;2.78;;
37955;SDS011;23776;51.592;7.180;2023-07-31T10:36:25;5.15;;;2.50;;
37955;SDS011;23776;51.592;7.180;2023-07-31T10:38:52;4.00;;;2.40;;
37955;SDS011;23776;51.592;7.180;2023-07-31T10:41:17;6.25;;;2.63;;
37955;SDS011;23776;51.592;7.180;2023-07-31T10:43:45;5.07;;;2.58;;
37955;SDS011;23776;51.592;7.180;2023-07-31T10:46:11;5.82;;;3.15;;
37955;SDS011;23776;51.592;7.180;2023-07-31T10:48:38;7.00;;;4.20;;
37955;SDS011;23776;51.592;7.180;2023-07-31T10:51:08;8.23;;;4.47;;
37955;SDS011;23776;51.592;7.180;2023-07-31T10:53:35;5.80;;;3.90;;
37955;SDS011;23776;51.592;7.180;2023-07-31T10:56:05;7.57;;;4.57;;
37955;SDS011;23776;51.592;7.180;2023-07-31T10:58:32;9.18;;;4.93;;
37955;SDS011;23776;51.592;7.180;2023-07-31T11:01:00;11.82;;;5.93;;
37955;SDS011;23776;51.592;7.180;2023-07-31T11:03:41;11.48;;;5.82;;
37955;SDS011;23776;51.592;7.180;2023-07-31T11:06:14;9.25;;;6.07;;
37955;SDS011;23776;51.592;7.180;2023-07-31T11:08:42;12.70;;;7.75;;
37955;SDS011;23776;51.592;7.180;2023-07-31T11:11:09;15.20;;;8.38;;
37955;SDS011;23776;51.592;7.180;2023-07-31T11:16:08;13.30;;;7.72;;
37955;SDS011;23776;51.592;7.180;2023-07-31T11:18:34;18.75;;;8.93;;
37955;SDS011;23776;51.592;7.180;2023-07-31T11:21:00;18.30;;;8.02;;
37955;SDS011;23776;51.592;7.180;2023-07-31T11:23:26;28.88;;;9.65;;
37955;SDS011;23776;51.592;7.180;2023-07-31T11:25:51;13.05;;;7.55;;
37955;SDS011;23776;51.592;7.180;2023-07-31T11:28:17;15.35;;;8.07;;
37955;SDS011;23776;51.592;7.180;2023-07-31T11:30:44;12.18;;;7.95;;
37955;SDS011;23776;51.592;7.180;2023-07-31T11:33:12;13.85;;;7.10;;
37955;SDS011;23776;51.592;7.180;2023-07-31T11:35:43;11.98;;;6.85;;
37955;SDS011;23776;51.592;7.180;2023-07-31T11:38:27;16.33;;;7.32;;
37955;SDS011;23776;51.592;7.180;2023-07-31T11:40:57;13.02;;;7.05;;
37955;SDS011;23776;51.592;7.180;2023-07-31T11:43:27;16.10;;;7.10;;
37955;SDS011;23776;51.592;7.180;2023-07-31T11:45:57;10.82;;;5.72;;
37955;SDS011;23776;51.592;7.180;2023-07-31T11:48:25;15.95;;;6.40;;
37955;SDS011;23776;51.592;7.180;2023-07-31T11:50:53;11.13;;;6.25;;
37955;SDS011;23776;51.592;7.180;2023-07-31T11:53:31;10.57;;;5.63;;
37955;SDS011;23776;51.592;7.180;2023-07-31T11:56:03;13.20;;;6.90;;
37955;SDS011;23776;51.592;7.180;2023-07-31T11:58:30;12.18;;;5.30;;
37955;SDS011;23776;51.592;7.180;2023-07-31T12:00:58;11.13;;;6.05;;
37955;SDS011;23776;51.592;7.180;2023-07-31T12:03:24;10.02;;;5.60;;
37955;SDS011;23776;51.592;7.180;2023-07-31T12:05:51;12.35;;;5.30;;
37955;SDS011;23776;51.592;7.180;2023-07-31T12:08:18;14.45;;;6.40;;
37955;SDS011;23776;51.592;7.180;2023-07-31T12:10:46;13.38;;;5.53;;
37955;SDS011;23776;51.592;7.180;2023-07-31T12:13:24;11.40;;;5.65;;
37955;SDS011;23776;51.592;7.180;2023-07-31T12:15:55;11.43;;;5.20;;
37955;SDS011;23776;51.592;7.180;2023-07-31T12:18:22;11.43;;;5.47;;
37955;SDS011;23776;51.592;7.180;2023-07-31T12:20:53;9.57;;;5.03;;
37955;SDS011;23776;51.592;7.180;2023-07-31T12:23:21;11.70;;;6.30;;
37955;SDS011;23776;51.592;7.180;2023-07-31T12:31:04;10.05;;;6.15;;
37955;SDS011;23776;51.592;7.180;2023-07-31T12:33:31;11.10;;;6.00;;
37955;SDS011;23776;51.592;7.180;2023-07-31T12:35:57;11.23;;;6.70;;
37955;SDS011;23776;51.592;7.180;2023-07-31T12:38:25;9.48;;;6.13;;
37955;SDS011;23776;51.592;7.180;2023-07-31T12:40:51;13.13;;;7.15;;
37955;SDS011;23776;51.592;7.180;2023-07-31T12:43:17;10.30;;;6.82;;
37955;SDS011;23776;51.592;7.180;2023-07-31T12:45:42;13.32;;;6.93;;
37955;SDS011;23776;51.592;7.180;2023-07-31T12:48:08;10.35;;;6.60;;
37955;SDS011;23776;51.592;7.180;2023-07-31T12:50:33;10.50;;;6.20;;
37955;SDS011;23776;51.592;7.180;2023-07-31T12:53:01;12.43;;;6.32;;
37955;SDS011;23776;51.592;7.180;2023-07-31T12:55:28;11.10;;;6.53;;
37955;SDS011;23776;51.592;7.180;2023-07-31T12:57:55;12.48;;;6.55;;
37955;SDS011;23776;51.592;7.180;2023-07-31T13:00:21;7.82;;;5.78;;
37955;SDS011;23776;51.592;7.180;2023-07-31T13:02:47;18.27;;;6.60;;
37955;SDS011;23776;51.592;7.180;2023-07-31T13:05:13;11.63;;;6.35;;
37955;SDS011;23776;51.592;7.180;2023-07-31T13:07:39;10.20;;;5.60;;
37955;SDS011;23776;51.592;7.180;2023-07-31T13:10:05;13.02;;;5.32;;
37955;SDS011;23776;51.592;7.180;2023-07-31T13:12:31;9.73;;;4.68;;
37955;SDS011;23776;51.592;7.180;2023-07-31T13:14:57;7.80;;;4.35;;
37955;SDS011;23776;51.592;7.180;2023-07-31T13:17:23;5.72;;;3.72;;
37955;SDS011;23776;51.592;7.180;2023-07-31T13:19:49;7.20;;;4.30;;
37955;SDS011;23776;51.592;7.180;2023-07-31T13:22:14;8.27;;;4.18;;
37955;SDS011;23776;51.592;7.180;2023-07-31T13:24:40;10.85;;;4.78;;
37955;SDS011;23776;51.592;7.180;2023-07-31T13:27:05;8.10;;;4.03;;
37955;SDS011;23776;51.592;7.180;2023-07-31T13:29:31;7.85;;;4.10;;
37955;SDS011;23776;51.592;7.180;2023-07-31T13:31:57;8.32;;;4.05;;
37955;SDS011;23776;51.592;7.180;2023-07-31T13:34:22;7.18;;;3.83;;
37955;SDS011;23776;51.592;7.180;2023-07-31T13:36:48;7.25;;;3.63;;
37955;SDS011;23776;51.592;7.180;2023-07-31T13:39:13;7.78;;;3.42;;
37955;SDS011;23776;51.592;7.180;2023-07-31T13:41:39;6.28;;;3.47;;
37955;SDS011;23776;51.592;7.180;2023-07-31T13:44:05;8.70;;;4.00;;
37955;SDS011;23776;51.592;7.180;2023-07-31T13:46:30;6.93;;;3.47;;
37955;SDS011;23776;51.592;7.180;2023-07-31T13:48:57;7.47;;;3.85;;
37955;SDS011;23776;51.592;7.180;2023-07-31T13:51:26;8.85;;;4.35;;
37955;SDS011;23776;51.592;7.180;2023-07-31T13:53:52;8.13;;;4.15;;
37955;SDS011;23776;51.592;7.180;2023-07-31T13:56:18;19.02;;;5.65;;
37955;SDS011;23776;51.592;7.180;2023-07-31T13:58:44;7.97;;;3.60;;
37955;SDS011;23776;51.592;7.180;2023-07-31T14:01:10;6.45;;;4.30;;
37955;SDS011;23776;51.592;7.180;2023-07-31T14:03:35;8.63;;;3.85;;
37955;SDS011;23776;51.592;7.180;2023-07-31T14:06:01;8.18;;;4.03;;
37955;SDS011;23776;51.592;7.180;2023-07-31T14:08:27;9.18;;;3.55;;
37955;SDS011;23776;51.592;7.180;2023-07-31T14:10:54;4.88;;;3.25;;
37955;SDS011;23776;51.592;7.180;2023-07-31T14:13:19;6.28;;;3.72;;
37955;SDS011;23776;51.592;7.180;2023-07-31T14:15:45;6.90;;;4.40;;
37955;SDS011;23776;51.592;7.180;2023-07-31T14:18:10;8.68;;;4.38;;
37955;SDS011;23776;51.592;7.180;2023-07-31T14:20:36;12.82;;;4.47;;
37955;SDS011;23776;51.592;7.180;2023-07-31T14:23:03;6.65;;;3.42;;
37955;SDS011;23776;51.592;7.180;2023-07-31T14:25:29;7.82;;;4.15;;
37955;SDS011;23776;51.592;7.180;2023-07-31T14:27:54;12.23;;;5.15;;
37955;SDS011;23776;51.592;7.180;2023-07-31T14:30:20;7.80;;;4.35;;
37955;SDS011;23776;51.592;7.180;2023-07-31T14:32:46;7.38;;;4.05;;
37955;SDS011;23776;51.592;7.180;2023-07-31T14:35:12;9.50;;;4.35;;
37955;SDS011;23776;51.592;7.180;2023-07-31T14:37:41;8.98;;;4.40;;
37955;SDS011;23776;51.592;7.180;2023-07-31T14:40:09;6.47;;;3.65;;
37955;SDS011;23776;51.592;7.180;2023-07-31T14:42:36;7.10;;;3.40;;
37955;SDS011;23776;51.592;7.180;2023-07-31T14:45:03;11.95;;;4.43;;
37955;SDS011;23776;51.592;7.180;2023-07-31T14:47:31;10.75;;;4.32;;
37955;SDS011;23776;51.592;7.180;2023-07-31T14:49:57;11.70;;;4.65;;
37955;SDS011;23776;51.592;7.180;2023-07-31T14:52:24;11.90;;;4.85;;